Time;durP1;ratioP1;P1;durP2;ratioP2;P2;SDS_P1;SDS_P2;PMS_P1;PMS_P2;Temp;Humidity;BMP_temperature;BMP_pressure;BME280_temperature;BME280_humidity;BME280_pressure;Samples;Min_cycle;Max_cycle;Signal;HPM_P1;HPM_P2
2022/09/03 00:02:27;;;;;;;;;;;;;;;23.08;81.84;96924.58;604762;234;66946;-67
2022/09/03 00:04:59;;;;;;;;;;;;;;;23.08;81.82;96935.30;604599;234;65059;-68
2022/09/03 00:07:46;;;;;;;;;;;;;;;23.07;81.58;96931.83;604657;234;65460;-69
2022/09/03 00:10:18;;;;;;;;;;;;;;;23.09;81.65;96936.91;601820;234;64921;-67
2022/09/03 00:12:46;;;;;;;;;;;;;;;23.07;81.76;96931.03;600168;236;62584;-67
2022/09/03 00:15:18;;;;;;;;;;;;;;;23.08;81.77;96929.94;600278;236;67651;-67
2022/09/03 00:17:47;;;;;;;;;;;;;;;23.07;81.80;96926.47;600225;236;67368;-67
2022/09/03 00:20:19;;;;;;;;;;;;;;;23.08;81.99;96927.26;600352;236;62782;-68
2022/09/03 00:22:49;;;;;;;;;;;;;;;23.08;81.94;96928.08;600276;236;68004;-68
2022/09/03 00:25:23;;;;;;;;;;;;;;;23.07;82.03;96926.47;600178;236;64931;-68
2022/09/03 00:27:54;;;;;;;;;;;;;;;23.07;82.03;96923.78;599975;236;64988;-67
2022/09/03 00:30:23;;;;;;;;;;;;;;;23.07;81.93;96920.31;600287;236;68850;-66
2022/09/03 00:32:52;;;;;;;;;;;;;;;23.07;82.02;96929.14;600342;236;67275;-67
2022/09/03 00:35:23;;;;;;;;;;;;;;;23.07;82.06;96921.11;600290;236;65002;-68
2022/09/03 00:37:54;;;;;;;;;;;;;;;23.08;82.07;96930.77;600255;236;67073;-67
2022/09/03 00:40:24;;;;;;;;;;;;;;;23.07;82.12;96926.47;600262;236;64698;-68
2022/09/03 00:42:54;;;;;;;;;;;;;;;23.08;82.12;96928.08;600046;236;64883;-68
2022/09/03 00:45:35;;;;;;;;;;;;;;;23.08;82.07;96922.72;599498;236;64663;-68
2022/09/03 00:48:13;;;;;;;;;;;;;;;23.08;82.09;96928.08;599580;236;64858;-67
2022/09/03 00:50:42;;;;;;;;;;;;;;;23.07;82.12;96931.03;600119;236;65029;-67
2022/09/03 00:53:14;;;;;;;;;;;;;;;23.06;82.06;96921.41;600194;236;67205;-67
2022/09/03 00:55:47;;;;;;;;;;;;;;;23.07;82.03;96928.35;600309;236;67112;-67
2022/09/03 00:58:28;;;;;;;;;;;;;;;23.06;82.02;96930.24;600284;236;63739;-67
2022/09/03 01:00:56;;;;;;;;;;;;;;;23.07;82.15;96937.19;600311;236;64872;-67
2022/09/03 01:03:28;;;;;;;;;;;;;;;23.07;82.20;96931.03;600280;236;65336;-67
2022/09/03 01:06:02;;;;;;;;;;;;;;;23.06;82.31;96935.60;600336;236;64977;-67
2022/09/03 01:08:45;;;;;;;;;;;;;;;23.07;82.30;96934.51;600039;235;67358;-67
2022/09/03 01:11:19;;;;;;;;;;;;;;;23.05;82.34;96931.30;600298;236;65509;-67
2022/09/03 01:13:49;;;;;;;;;;;;;;;23.05;82.23;96933.98;599927;236;65084;-67
2022/09/03 01:16:21;;;;;;;;;;;;;;;23.06;82.31;96940.17;599514;236;67099;-68
2022/09/03 01:18:50;;;;;;;;;;;;;;;23.05;82.31;96936.67;600073;236;66576;-67
2022/09/03 01:21:35;;;;;;;;;;;;;;;23.05;82.34;96939.34;599210;236;64974;-67
2022/09/03 01:24:20;;;;;;;;;;;;;;;23.06;82.40;96943.64;599958;236;64308;-67
2022/09/03 01:27:02;;;;;;;;;;;;;;;23.05;82.33;96944.70;600012;236;64420;-67
2022/09/03 01:29:34;;;;;;;;;;;;;;;23.04;82.45;96943.13;600136;236;65298;-67
2022/09/03 01:32:03;;;;;;;;;;;;;;;23.04;82.49;96943.91;598706;236;64875;-67
2022/09/03 01:34:38;;;;;;;;;;;;;;;23.04;82.44;96943.13;600071;236;66669;-67
2022/09/03 01:37:13;;;;;;;;;;;;;;;23.04;82.44;96948.48;600156;236;65232;-67
2022/09/03 01:39:42;;;;;;;;;;;;;;;23.04;82.50;96943.91;599446;236;67168;-67
2022/09/03 01:42:26;;;;;;;;;;;;;;;23.04;82.57;96945.80;600313;236;66812;-67
2022/09/03 01:45:01;;;;;;;;;;;;;;;23.04;82.56;96959.20;600269;236;65168;-67
2022/09/03 01:47:39;;;;;;;;;;;;;;;23.03;82.53;96946.89;600060;236;67157;-68
2022/09/03 01:50:08;;;;;;;;;;;;;;;23.04;82.41;96945.80;600252;236;65782;-67
2022/09/03 01:52:53;;;;;;;;;;;;;;;23.03;82.43;96949.58;600102;236;65239;-68
2022/09/03 01:55:22;;;;;;;;;;;;;;;23.03;82.41;96941.54;600214;236;67108;-67
2022/09/03 01:58:00;;;;;;;;;;;;;;;23.02;82.44;96938.03;600092;236;64843;-67
2022/09/03 02:00:24;;;;;;;;;;;;;;;23.03;82.43;96936.17;590594;236;62716;-67
2022/09/03 02:02:53;;;;;;;;;;;;;;;23.03;82.36;96936.97;600296;236;67328;-67
2022/09/03 02:05:24;;;;;;;;;;;;;;;23.03;82.42;96930.81;600275;236;67049;-67
2022/09/03 02:08:00;;;;;;;;;;;;;;;23.03;82.30;96938.86;600232;236;65123;-67
2022/09/03 02:10:30;;;;;;;;;;;;;;;23.02;82.24;96943.39;600298;236;67263;-67
2022/09/03 02:13:00;;;;;;;;;;;;;;;23.02;82.28;96940.72;600312;236;66745;-67
2022/09/03 02:15:31;;;;;;;;;;;;;;;23.03;82.34;96946.89;600145;236;62809;-67
2022/09/03 02:17:59;;;;;;;;;;;;;;;23.02;82.22;96942.60;600235;236;71739;-67
2022/09/03 02:20:28;;;;;;;;;;;;;;;23.03;82.10;96960.30;600199;236;73026;-67
2022/09/03 02:22:57;;;;;;;;;;;;;;;23.02;82.12;96958.69;600276;236;62920;-67
2022/09/03 02:25:26;;;;;;;;;;;;;;;23.04;82.28;96964.56;600327;236;67427;-67
2022/09/03 02:27:54;;;;;;;;;;;;;;;23.02;82.24;96954.12;600173;236;67821;-67
2022/09/03 02:30:22;;;;;;;;;;;;;;;23.03;81.97;96953.05;600283;236;62680;-67
2022/09/03 02:32:50;;;;;;;;;;;;;;;23.02;82.11;96947.96;600237;236;64854;-67
2022/09/03 02:35:17;;;;;;;;;;;;;;;23.02;82.09;96950.64;600336;236;64078;-67
2022/09/03 02:37:45;;;;;;;;;;;;;;;23.02;82.08;96956.80;600414;236;62825;-67
2022/09/03 02:40:12;;;;;;;;;;;;;;;23.02;82.00;96950.64;600314;236;66588;-67
2022/09/03 02:42:40;;;;;;;;;;;;;;;23.03;81.94;96957.62;600338;236;66788;-67
2022/09/03 02:45:13;;;;;;;;;;;;;;;23.02;81.85;96956.00;600318;236;62599;-67
2022/09/03 02:47:42;;;;;;;;;;;;;;;23.02;81.94;96962.16;600084;236;64395;-67
2022/09/03 02:50:09;;;;;;;;;;;;;;;23.02;82.05;96950.64;600381;236;66904;-68
2022/09/03 02:52:40;;;;;;;;;;;;;;;23.01;82.02;96947.17;600328;236;64877;-67
2022/09/03 02:55:08;;;;;;;;;;;;;;;23.03;82.03;96962.98;600342;236;66975;-68
2022/09/03 02:57:35;;;;;;;;;;;;;;;23.01;82.03;96949.05;600323;236;66965;-67
2022/09/03 03:00:04;;;;;;;;;;;;;;;23.02;82.09;96954.12;600298;236;63686;-67
2022/09/03 03:02:33;;;;;;;;;;;;;;;23.01;81.99;96947.17;600255;236;47924;-67
2022/09/03 03:05:01;;;;;;;;;;;;;;;23.01;81.99;96954.42;600372;236;66779;-68
2022/09/03 03:07:30;;;;;;;;;;;;;;;23.01;81.96;96946.38;600339;236;62684;-68
2022/09/03 03:09:59;;;;;;;;;;;;;;;23.01;81.97;96951.73;600300;236;47850;-68
2022/09/03 03:12:27;;;;;;;;;;;;;;;23.01;82.04;96943.70;600299;236;66629;-68
2022/09/03 03:14:55;;;;;;;;;;;;;;;23.00;82.00;96956.30;600329;236;62856;-67
2022/09/03 03:17:22;;;;;;;;;;;;;;;23.00;81.97;96956.30;600373;236;64561;-68
2022/09/03 03:19:50;;;;;;;;;;;;;;;23.00;81.96;96950.94;600336;236;64592;-67
2022/09/03 03:22:18;;;;;;;;;;;;;;;23.00;81.98;96947.47;600339;236;65114;-67
2022/09/03 03:24:45;;;;;;;;;;;;;;;23.01;81.91;96954.42;600311;236;66842;-68
2022/09/03 03:27:13;;;;;;;;;;;;;;;23.00;81.95;96956.30;600351;236;66387;-67
2022/09/03 03:29:41;;;;;;;;;;;;;;;23.00;81.84;96944.79;600349;236;65254;-67
2022/09/03 03:32:08;;;;;;;;;;;;;;;23.00;81.79;96945.59;600331;236;64454;-67
2022/09/03 03:34:38;;;;;;;;;;;;;;;23.01;81.86;96951.73;600285;236;64615;-67
2022/09/03 03:37:06;;;;;;;;;;;;;;;23.01;81.76;96954.42;600322;236;63709;-67
2022/09/03 03:39:33;;;;;;;;;;;;;;;23.00;81.76;96952.83;600279;236;66608;-68
2022/09/03 03:42:01;;;;;;;;;;;;;;;23.00;81.75;96955.52;600373;236;64618;-68
2022/09/03 03:44:28;;;;;;;;;;;;;;;23.00;81.73;96952.83;600326;236;62751;-67
2022/09/03 03:46:56;;;;;;;;;;;;;;;22.99;81.78;96949.33;600314;236;66777;-67
2022/09/03 03:49:24;;;;;;;;;;;;;;;23.00;81.73;96955.52;600310;236;66767;-68
2022/09/03 03:51:51;;;;;;;;;;;;;;;23.00;81.81;96960.87;600345;236;63750;-67
2022/09/03 03:54:19;;;;;;;;;;;;;;;22.99;81.79;96960.05;600323;236;66607;-67
2022/09/03 03:56:46;;;;;;;;;;;;;;;23.00;81.75;96963.55;600340;236;66912;-67
2022/09/03 03:59:14;;;;;;;;;;;;;;;22.99;81.74;96967.30;600289;236;65206;-67
2022/09/03 04:01:41;;;;;;;;;;;;;;;22.99;81.73;96961.94;600405;236;67043;-67
2022/09/03 04:04:09;;;;;;;;;;;;;;;22.98;81.75;96971.86;600301;236;66679;-67
2022/09/03 04:06:36;;;;;;;;;;;;;;;22.98;81.71;96968.39;600299;236;64965;-67
2022/09/03 04:09:04;;;;;;;;;;;;;;;22.98;81.72;96966.50;601022;234;66765;-68
2022/09/03 04:11:31;;;;;;;;;;;;;;;22.99;81.73;96967.30;604803;234;67655;-67
2022/09/03 04:13:59;;;;;;;;;;;;;;;22.98;81.63;96973.75;604789;234;64869;-67
2022/09/03 04:16:27;;;;;;;;;;;;;;;22.99;81.63;96980.70;604821;234;66879;-67
2022/09/03 04:18:55;;;;;;;;;;;;;;;22.98;81.67;96976.43;604787;234;64884;-67
2022/09/03 04:21:24;;;;;;;;;;;;;;;22.98;81.69;96977.22;604818;234;62838;-68
2022/09/03 04:23:52;;;;;;;;;;;;;;;22.98;81.61;96984.47;604750;234;66775;-67
2022/09/03 04:26:24;;;;;;;;;;;;;;;22.98;81.55;96984.47;604796;234;64600;-67
2022/09/03 04:28:53;;;;;;;;;;;;;;;22.98;81.57;96985.27;604750;234;66071;-68
2022/09/03 04:31:21;;;;;;;;;;;;;;;22.97;81.58;96982.86;604776;234;66987;-68
2022/09/03 04:33:50;;;;;;;;;;;;;;;22.97;81.53;96985.53;604788;234;65551;-68
2022/09/03 04:36:19;;;;;;;;;;;;;;;22.97;81.45;96983.67;604761;234;66075;-68
2022/09/03 04:38:48;;;;;;;;;;;;;;;22.97;81.46;96982.86;604505;234;66809;-69
2022/09/03 04:41:16;;;;;;;;;;;;;;;22.97;81.49;96983.67;604800;234;64262;-68
2022/09/03 04:43:45;;;;;;;;;;;;;;;22.96;81.48;96987.42;604789;234;64878;-68
2022/09/03 04:46:13;;;;;;;;;;;;;;;22.97;81.35;96980.17;604786;234;66789;-66
2022/09/03 04:48:42;;;;;;;;;;;;;;;22.97;81.39;96988.22;604765;234;65752;-66
2022/09/03 04:51:12;;;;;;;;;;;;;;;22.96;81.36;96995.46;604772;234;64833;-66
2022/09/03 04:53:50;;;;;;;;;;;;;;;22.97;81.42;97001.61;604799;234;46660;-67
2022/09/03 04:56:20;;;;;;;;;;;;;;;22.96;81.44;97000.82;604374;234;64852;-67
2022/09/03 04:58:48;;;;;;;;;;;;;;;22.96;81.52;97000.03;604745;234;65283;-67
2022/09/03 05:01:17;;;;;;;;;;;;;;;22.96;81.47;97005.39;604814;234;66776;-67
2022/09/03 05:03:45;;;;;;;;;;;;;;;22.95;81.43;97015.28;604792;234;65570;-67
2022/09/03 05:06:13;;;;;;;;;;;;;;;22.95;81.46;97009.13;604782;234;63050;-67
2022/09/03 05:08:40;;;;;;;;;;;;;;;22.96;81.42;97010.75;604685;234;66532;-67
2022/09/03 05:11:08;;;;;;;;;;;;;;;22.95;81.48;97015.28;600289;236;64372;-67
2022/09/03 05:13:39;;;;;;;;;;;;;;;22.96;81.33;97016.11;600334;236;63598;-67
2022/09/03 05:16:08;;;;;;;;;;;;;;;22.95;81.37;97015.28;600314;236;67071;-68
2022/09/03 05:18:36;;;;;;;;;;;;;;;22.94;81.33;97018.23;600314;236;64644;-68
2022/09/03 05:21:05;;;;;;;;;;;;;;;22.94;81.35;97015.55;600341;236;62985;-70
2022/09/03 05:23:34;;;;;;;;;;;;;;;22.94;81.24;97018.23;600090;236;65548;-70
2022/09/03 05:26:05;;;;;;;;;;;;;;;22.95;81.37;97027.89;600059;236;66834;-70
2022/09/03 05:28:32;;;;;;;;;;;;;;;22.95;81.38;97025.21;600368;236;64700;-70
2022/09/03 05:31:01;;;;;;;;;;;;;;;22.95;81.25;97034.05;600341;236;64309;-70
2022/09/03 05:33:28;;;;;;;;;;;;;;;22.94;81.21;97034.31;600310;236;66573;-70
2022/09/03 05:35:57;;;;;;;;;;;;;;;22.94;81.17;97036.99;600321;236;65120;-70
2022/09/03 05:38:25;;;;;;;;;;;;;;;22.94;81.24;97036.99;600163;236;64272;-70
2022/09/03 05:40:52;;;;;;;;;;;;;;;22.94;81.25;97034.31;600378;236;64030;-70
2022/09/03 05:43:20;;;;;;;;;;;;;;;22.94;81.23;97039.67;600335;236;65233;-70
2022/09/03 05:45:48;;;;;;;;;;;;;;;22.94;81.17;97045.03;600318;236;66310;-70
2022/09/03 05:48:17;;;;;;;;;;;;;;;22.94;81.16;97045.03;600233;236;64258;-70
2022/09/03 05:50:45;;;;;;;;;;;;;;;22.94;81.13;97055.75;600311;236;65237;-70
2022/09/03 05:53:17;;;;;;;;;;;;;;;22.94;81.13;97053.08;600231;236;66182;-70
2022/09/03 05:55:44;;;;;;;;;;;;;;;22.93;81.11;97057.64;600314;236;66364;-70
2022/09/03 05:58:11;;;;;;;;;;;;;;;22.93;81.10;97060.31;600280;236;64945;-70
2022/09/03 06:00:39;;;;;;;;;;;;;;;22.93;81.15;97062.20;600303;236;66890;-70
2022/09/03 06:03:08;;;;;;;;;;;;;;;22.93;81.14;97054.96;600321;236;48067;-70
2022/09/03 06:05:36;;;;;;;;;;;;;;;22.94;81.10;97053.08;600294;236;64885;-70
2022/09/03 06:08:05;;;;;;;;;;;;;;;22.93;81.10;97051.48;600266;236;64522;-69
2022/09/03 06:10:34;;;;;;;;;;;;;;;22.93;81.11;97054.16;600372;236;65775;-70
2022/09/03 06:13:03;;;;;;;;;;;;;;;22.93;81.05;97054.16;600188;236;43918;-70
2022/09/03 06:15:31;;;;;;;;;;;;;;;22.93;80.49;97062.20;600304;236;66780;-70
2022/09/03 06:17:59;;;;;;;;;;;;;;;22.92;80.26;97056.05;600305;236;66816;-69
2022/09/03 06:20:27;;;;;;;;;;;;;;;22.93;80.63;97071.04;600382;236;62756;-70
2022/09/03 06:22:57;;;;;;;;;;;;;;;22.93;80.39;97071.04;600266;236;45043;-70
2022/09/03 06:25:24;;;;;;;;;;;;;;;22.94;80.30;97069.16;600337;236;66771;-70
2022/09/03 06:27:52;;;;;;;;;;;;;;;22.94;80.46;97069.16;600287;236;65298;-70
2022/09/03 06:30:21;;;;;;;;;;;;;;;22.94;80.47;97079.88;600304;236;67229;-70
2022/09/03 06:32:51;;;;;;;;;;;;;;;22.94;80.56;97077.98;600376;236;66681;-70
2022/09/03 06:35:18;;;;;;;;;;;;;;;22.95;80.53;97086.85;600314;236;64971;-69
2022/09/03 06:37:46;;;;;;;;;;;;;;;22.95;80.69;97086.85;600352;236;66722;-69
2022/09/03 06:40:19;;;;;;;;;;;;;;;22.95;80.60;97094.89;600327;236;66898;-69
2022/09/03 06:42:43;;;;;;;;;;;;;;;22.96;80.62;97101.87;600077;236;64923;-70
2022/09/03 06:45:11;;;;;;;;;;;;;;;22.96;80.60;97104.55;600374;236;67162;-70
2022/09/03 06:47:40;;;;;;;;;;;;;;;22.96;80.54;97104.55;600309;236;67048;-69
2022/09/03 06:50:07;;;;;;;;;;;;;;;22.96;80.51;97096.50;600293;236;65118;-69
2022/09/03 06:52:35;;;;;;;;;;;;;;;22.96;80.46;97104.55;600292;236;67208;-69
2022/09/03 06:55:03;;;;;;;;;;;;;;;22.96;80.51;97102.66;600273;236;66717;-70
2022/09/03 06:57:30;;;;;;;;;;;;;;;22.96;80.47;97104.55;600329;236;62693;-69
2022/09/03 06:59:58;;;;;;;;;;;;;;;22.96;80.54;97102.66;600328;236;63820;-69
2022/09/03 07:02:25;;;;;;;;;;;;;;;22.97;80.58;97114.17;600320;236;66909;-67
2022/09/03 07:04:53;;;;;;;;;;;;;;;22.97;80.51;97108.81;600308;236;64653;-67
2022/09/03 07:07:21;;;;;;;;;;;;;;;22.97;80.59;97116.86;600309;236;67219;-70
2022/09/03 07:09:49;;;;;;;;;;;;;;;22.97;80.58;97114.17;602412;234;66674;-69
2022/09/03 07:12:18;;;;;;;;;;;;;;;22.97;80.56;97104.28;604826;234;62833;-70
2022/09/03 07:14:46;;;;;;;;;;;;;;;22.97;80.52;97114.17;604746;234;67264;-70
2022/09/03 07:17:14;;;;;;;;;;;;;;;22.97;80.58;97112.31;604753;234;65291;-69
2022/09/03 07:19:42;;;;;;;;;;;;;;;22.98;80.55;97115.80;604748;234;65022;-69
2022/09/03 07:22:09;;;;;;;;;;;;;;;22.97;80.56;97114.17;604756;234;67167;-69
2022/09/03 07:24:37;;;;;;;;;;;;;;;22.97;80.56;97122.22;604795;234;65599;-69
2022/09/03 07:27:05;;;;;;;;;;;;;;;22.97;80.54;97120.36;604756;234;62782;-69
2022/09/03 07:29:33;;;;;;;;;;;;;;;22.97;80.49;97123.04;604747;234;67296;-69
2022/09/03 07:32:00;;;;;;;;;;;;;;;22.97;80.45;97120.36;604754;234;66945;-69
2022/09/03 07:34:28;;;;;;;;;;;;;;;22.97;80.46;97128.40;604797;234;65484;-69
2022/09/03 07:36:55;;;;;;;;;;;;;;;22.98;80.34;97126.52;604794;234;66487;-70
2022/09/03 07:39:23;;;;;;;;;;;;;;;22.98;80.32;97129.98;604744;234;64954;-70
2022/09/03 07:41:50;;;;;;;;;;;;;;;22.98;80.33;97121.95;604735;234;62441;-69
2022/09/03 07:44:19;;;;;;;;;;;;;;;22.98;80.38;97127.31;604731;234;68365;-69
2022/09/03 07:46:49;;;;;;;;;;;;;;;22.98;80.38;97126.52;604753;234;64866;-70
2022/09/03 07:49:16;;;;;;;;;;;;;;;22.98;80.30;97137.23;604754;234;62529;-69
2022/09/03 07:51:45;;;;;;;;;;;;;;;22.98;80.28;97129.98;604778;234;67408;-70
2022/09/03 07:54:13;;;;;;;;;;;;;;;22.98;80.25;97129.20;604742;234;64743;-70
2022/09/03 07:56:40;;;;;;;;;;;;;;;22.98;80.21;97134.55;604743;234;64923;-70
2022/09/03 07:59:08;;;;;;;;;;;;;;;22.97;80.22;97133.76;604743;234;67377;-70
2022/09/03 08:01:36;;;;;;;;;;;;;;;22.97;80.12;97141.80;604760;234;64707;-69
2022/09/03 08:04:05;;;;;;;;;;;;;;;22.98;80.14;97134.55;604764;234;62840;-70
2022/09/03 08:06:33;;;;;;;;;;;;;;;22.98;80.09;97131.88;604742;234;67069;-70
2022/09/03 08:09:02;;;;;;;;;;;;;;;22.98;80.06;97129.98;604688;234;66975;-70
2022/09/03 08:11:30;;;;;;;;;;;;;;;22.97;80.02;97132.94;604780;234;62814;-70
2022/09/03 08:14:02;;;;;;;;;;;;;;;22.97;80.00;97139.12;604747;234;67129;-69
2022/09/03 08:16:30;;;;;;;;;;;;;;;22.97;80.01;97131.08;604793;234;67078;-69
2022/09/03 08:18:58;;;;;;;;;;;;;;;22.98;80.06;97132.67;604740;234;62750;-67
2022/09/03 08:21:26;;;;;;;;;;;;;;;22.97;80.04;97123.04;604761;234;67034;-67
2022/09/03 08:24:01;;;;;;;;;;;;;;;22.97;79.96;97133.76;604733;234;64635;-67
2022/09/03 08:26:28;;;;;;;;;;;;;;;22.98;79.96;97137.23;604525;234;64964;-68
2022/09/03 08:28:56;;;;;;;;;;;;;;;22.99;80.00;97141.50;604735;234;65120;-69
2022/09/03 08:31:27;;;;;;;;;;;;;;;22.98;80.08;97139.91;604748;234;67636;-68
2022/09/03 08:33:55;;;;;;;;;;;;;;;22.97;80.16;97143.66;604769;234;64922;-69
2022/09/03 08:36:29;;;;;;;;;;;;;;;22.98;80.21;97147.95;604724;234;64679;-69
2022/09/03 08:39:02;;;;;;;;;;;;;;;22.99;80.14;97149.55;604766;234;66998;-69
2022/09/03 08:41:42;;;;;;;;;;;;;;;22.97;80.19;97147.16;604614;234;65119;-68
2022/09/03 08:44:14;;;;;;;;;;;;;;;22.97;80.25;97144.48;603734;234;68057;-68
2022/09/03 08:47:01;;;;;;;;;;;;;;;22.97;80.21;97141.80;604566;234;66985;-68
2022/09/03 08:49:30;;;;;;;;;;;;;;;22.97;80.25;97140.98;604752;234;63904;-70
2022/09/03 08:51:58;;;;;;;;;;;;;;;22.97;80.27;97141.80;604205;234;64576;-67
2022/09/03 08:54:27;;;;;;;;;;;;;;;22.97;80.35;97151.70;604722;234;66777;-67
2022/09/03 08:56:55;;;;;;;;;;;;;;;22.96;80.34;97148.22;604709;234;65174;-68
2022/09/03 08:59:23;;;;;;;;;;;;;;;22.97;80.28;97146.34;604716;234;64958;-68
2022/09/03 09:01:55;;;;;;;;;;;;;;;22.96;80.33;97139.39;604803;234;67250;-69
2022/09/03 09:04:41;;;;;;;;;;;;;;;22.97;80.35;97152.52;604749;234;65165;-67
2022/09/03 09:07:10;;;;;;;;;;;;;;;22.97;80.31;97146.34;604739;234;67345;-68
2022/09/03 09:09:47;;;;;;;;;;;;;;;22.97;80.32;97149.02;602926;234;64708;-68
2022/09/03 09:12:18;;;;;;;;;;;;;;;22.97;80.35;97151.70;600276;236;66143;-68
2022/09/03 09:14:51;;;;;;;;;;;;;;;22.97;80.37;97151.70;600074;236;67389;-69
2022/09/03 09:17:29;;;;;;;;;;;;;;;22.96;80.34;97152.79;590640;236;66662;-69
2022/09/03 09:19:57;;;;;;;;;;;;;;;22.96;80.36;97150.11;600175;236;62774;-69
2022/09/03 09:22:27;;;;;;;;;;;;;;;22.96;80.36;97150.91;600263;236;64473;-68
2022/09/03 09:24:56;;;;;;;;;;;;;;;22.96;80.34;97150.11;600128;236;67673;-68
2022/09/03 09:27:24;;;;;;;;;;;;;;;22.96;80.35;97150.11;600251;236;65240;-68
2022/09/03 09:29:52;;;;;;;;;;;;;;;22.96;80.33;97147.42;600287;236;64860;-69
2022/09/03 09:32:20;;;;;;;;;;;;;;;22.95;80.38;97143.92;600317;236;64821;-68
2022/09/03 09:34:47;;;;;;;;;;;;;;;22.96;80.37;97144.75;600282;236;65174;-68
2022/09/03 09:37:16;;;;;;;;;;;;;;;22.97;80.30;97149.02;600271;236;67228;-68
2022/09/03 09:39:45;;;;;;;;;;;;;;;22.96;80.28;97145.55;600293;236;64172;-68
2022/09/03 09:42:12;;;;;;;;;;;;;;;22.96;80.25;97144.75;599852;236;65267;-69
2022/09/03 09:44:41;;;;;;;;;;;;;;;22.96;80.23;97150.91;600357;236;66785;-69
2022/09/03 09:47:13;;;;;;;;;;;;;;;22.96;80.24;97144.75;600254;236;64821;-69
2022/09/03 09:49:45;;;;;;;;;;;;;;;22.96;80.22;97150.91;600278;236;65226;-68
2022/09/03 09:52:15;;;;;;;;;;;;;;;22.97;80.17;97151.70;600059;236;64465;-69
2022/09/03 09:54:49;;;;;;;;;;;;;;;22.96;80.18;97152.79;600270;236;66857;-69
2022/09/03 09:57:17;;;;;;;;;;;;;;;22.96;80.17;97158.15;599993;236;62788;-68
2022/09/03 09:59:49;;;;;;;;;;;;;;;22.95;80.16;97146.60;600332;236;64445;-69
2022/09/03 10:02:22;;;;;;;;;;;;;;;22.96;80.15;97160.83;600272;236;67076;-67
2022/09/03 10:04:50;;;;;;;;;;;;;;;22.97;80.18;97151.70;599065;236;64605;-69
2022/09/03 10:07:19;;;;;;;;;;;;;;;22.96;80.12;97155.47;600229;236;66886;-69
2022/09/03 10:09:48;;;;;;;;;;;;;;;22.96;80.16;97152.79;602267;234;64860;-69
2022/09/03 10:12:18;;;;;;;;;;;;;;;22.96;80.16;97153.58;604313;234;65992;-69
2022/09/03 10:15:00;;;;;;;;;;;;;;;22.96;80.18;97160.83;604608;234;65037;-69
2022/09/03 10:17:31;;;;;;;;;;;;;;;22.96;80.16;97155.47;604647;234;64770;-69
2022/09/03 10:22:50;;;;;;;;;;;;;;;22.95;80.16;97160.00;604765;234;64899;-70
2022/09/03 10:25:19;;;;;;;;;;;;;;;22.96;80.17;97163.51;604639;234;65863;-71
2022/09/03 10:27:46;;;;;;;;;;;;;;;22.95;80.11;97164.56;604672;234;63713;-70
2022/09/03 10:30:14;;;;;;;;;;;;;;;22.95;80.15;97165.36;604823;234;64890;-70
2022/09/03 10:32:47;;;;;;;;;;;;;;;22.95;80.13;97169.93;604709;234;68204;-70
2022/09/03 10:35:22;;;;;;;;;;;;;;;22.96;80.12;97179.59;604389;234;63734;-70
2022/09/03 10:37:51;;;;;;;;;;;;;;;22.96;80.14;97179.59;604722;234;64835;-71
2022/09/03 10:40:23;;;;;;;;;;;;;;;22.95;80.11;97177.97;604703;234;65741;-71
2022/09/03 10:43:07;;;;;;;;;;;;;;;22.95;80.09;97175.29;604701;234;62817;-70
2022/09/03 10:45:39;;;;;;;;;;;;;;;22.95;80.02;97164.56;604785;234;64853;-70
2022/09/03 10:48:09;;;;;;;;;;;;;;;22.95;79.98;97169.93;604619;234;67772;-70
2022/09/03 10:50:38;;;;;;;;;;;;;;;22.95;79.96;97170.72;604727;234;62786;-70
2022/09/03 10:53:23;;;;;;;;;;;;;;;22.95;79.89;97164.56;604697;234;67235;-70
2022/09/03 10:55:58;;;;;;;;;;;;;;;22.95;79.93;97164.56;604762;234;64560;-70
2022/09/03 10:58:27;;;;;;;;;;;;;;;22.95;79.91;97169.93;604758;234;65318;-70
2022/09/03 11:00:56;;;;;;;;;;;;;;;22.95;79.89;97178.77;604807;234;64734;-70
2022/09/03 11:03:28;;;;;;;;;;;;;;;22.95;79.93;97186.01;604537;234;65207;-70
2022/09/03 11:06:03;;;;;;;;;;;;;;;22.95;79.91;97186.01;604462;234;62505;-70
2022/09/03 11:08:47;;;;;;;;;;;;;;;22.94;80.02;97179.83;604646;234;64917;-70
2022/09/03 11:11:25;;;;;;;;;;;;;;;22.94;79.99;97187.86;604771;234;67463;-70
2022/09/03 11:13:53;;;;;;;;;;;;;;;22.94;80.03;97185.19;604478;234;62772;-71
2022/09/03 11:16:24;;;;;;;;;;;;;;;22.95;80.13;97199.41;604756;234;67164;-71
2022/09/03 11:18:53;;;;;;;;;;;;;;;22.94;80.06;97200.47;604780;234;64828;-71
2022/09/03 11:21:22;;;;;;;;;;;;;;;22.94;80.06;97190.55;604656;234;64927;-71
2022/09/03 11:23:51;;;;;;;;;;;;;;;22.95;80.02;97196.73;604764;234;66780;-71
2022/09/03 11:26:21;;;;;;;;;;;;;;;22.94;80.01;97197.79;604745;234;64803;-71
2022/09/03 11:29:07;;;;;;;;;;;;;;;22.94;79.99;97190.55;604758;234;66042;-71
2022/09/03 11:31:56;;;;;;;;;;;;;;;22.95;80.05;97199.41;585711;240;65208;-70
2022/09/03 11:34:26;;;;;;;;;;;;;;;22.94;80.05;97203.95;601204;234;65730;-69
2022/09/03 11:36:55;;;;;;;;;;;;;;;22.94;80.03;97205.83;604786;234;65255;-70
2022/09/03 11:39:27;;;;;;;;;;;;;;;22.95;80.03;97204.77;599232;234;67092;-68
2022/09/03 11:42:14;;;;;;;;;;;;;;;22.94;80.00;97200.47;604412;234;67804;-68
2022/09/03 11:44:43;;;;;;;;;;;;;;;22.94;80.01;97201.27;604363;234;66020;-68
2022/09/03 11:47:15;;;;;;;;;;;;;;;22.93;79.97;97204.23;604755;234;64854;-68
2022/09/03 11:49:49;;;;;;;;;;;;;;;22.95;79.99;97210.13;604976;234;67827;-67
2022/09/03 11:52:28;;;;;;;;;;;;;;;22.93;80.00;97199.67;604837;229;64858;-70
2022/09/03 11:54:55;;;;;;;;;;;;;;;22.94;79.93;97206.63;604525;234;64780;-67
2022/09/03 11:57:30;;;;;;;;;;;;;;;22.94;79.92;97208.51;604809;234;67111;-68
2022/09/03 12:00:17;;;;;;;;;;;;;;;22.93;79.91;97210.39;604810;234;62713;-69
2022/09/03 12:02:48;;;;;;;;;;;;;;;22.93;79.91;97204.23;604802;234;46115;-70
2022/09/03 12:05:29;;;;;;;;;;;;;;;22.94;79.88;97213.87;604748;234;64953;-70
2022/09/03 12:08:07;;;;;;;;;;;;;;;22.93;79.86;97210.39;604416;234;65250;-67
2022/09/03 12:10:37;;;;;;;;;;;;;;;22.93;79.84;97209.59;604473;234;67445;-67
2022/09/03 12:13:28;;;;;;;;;;;;;;;22.93;79.83;97206.92;604924;234;67695;-68
2022/09/03 12:16:15;;;;;;;;;;;;;;;22.93;79.85;97210.39;604780;234;62848;-68
2022/09/03 12:18:44;;;;;;;;;;;;;;;22.94;79.80;97205.83;604441;234;65022;-68
2022/09/03 12:21:13;;;;;;;;;;;;;;;22.93;79.81;97206.92;604725;234;65098;-68
2022/09/03 12:23:46;;;;;;;;;;;;;;;22.92;79.89;97206.13;604871;234;65280;-70
2022/09/03 12:26:15;;;;;;;;;;;;;;;22.93;79.91;97212.28;604937;234;67300;-70
2022/09/03 12:28:45;;;;;;;;;;;;;;;22.93;79.92;97205.03;604475;234;67083;-70
2022/09/03 12:31:21;;;;;;;;;;;;;;;22.93;79.89;97206.92;604782;234;65064;-70
2022/09/03 12:33:51;;;;;;;;;;;;;;;22.92;79.92;97203.45;604786;234;66844;-70
2022/09/03 12:36:20;;;;;;;;;;;;;;;22.92;79.88;97208.80;604628;234;66031;-70
2022/09/03 12:38:48;;;;;;;;;;;;;;;22.92;79.86;97211.48;604830;234;64945;-71
2022/09/03 12:41:29;;;;;;;;;;;;;;;22.93;79.80;97205.03;604713;234;66915;-71
2022/09/03 12:43:58;;;;;;;;;;;;;;;22.92;79.80;97203.45;604741;234;65844;-71
2022/09/03 12:46:28;;;;;;;;;;;;;;;22.93;79.63;97204.23;603566;230;65103;-71
2022/09/03 12:48:56;;;;;;;;;;;;;;;22.92;79.70;97208.01;602563;235;67320;-71
2022/09/03 12:51:24;;;;;;;;;;;;;;;22.93;79.63;97214.96;602885;235;67177;-71
2022/09/03 12:53:53;;;;;;;;;;;;;;;22.92;79.56;97210.69;602827;235;65148;-71
2022/09/03 12:56:22;;;;;;;;;;;;;;;22.93;79.50;97212.28;602917;235;67847;-71
2022/09/03 12:58:51;;;;;;;;;;;;;;;22.93;79.41;97207.72;602883;235;67253;-71
2022/09/03 13:01:30;;;;;;;;;;;;;;;22.93;79.48;97206.92;602909;235;62468;-71
2022/09/03 13:04:08;;;;;;;;;;;;;;;22.93;79.43;97209.59;602524;235;65035;-71
2022/09/03 13:06:48;;;;;;;;;;;;;;;22.94;79.43;97211.19;602896;234;67005;-71
2022/09/03 13:09:16;;;;;;;;;;;;;;;22.93;79.39;97206.92;602858;235;62936;-71